Time;durP1;ratioP1;P1;durP2;ratioP2;P2;SDS_P1;SDS_P2;PMS_P1;PMS_P2;Temp;Humidity;BMP_temperature;BMP_pressure;BME280_temperature;BME280_humidity;BME280_pressure;Samples;Min_cycle;Max_cycle;Signal;HPM_P1;HPM_P2
2023/03/13 00:00:43;;;;;;;12.70;3.20;;;9.80;99.90;;;;;;5050053;28;20433;-77
2023/03/13 00:03:09;;;;;;;14.33;4.57;;;9.80;99.90;;;;;;5048731;28;20182;-76
2023/03/13 00:05:35;;;;;;;13.10;3.70;;;9.90;99.90;;;;;;5049987;28;20197;-77
2023/03/13 00:08:00;;;;;;;17.33;3.67;;;9.90;99.90;;;;;;5048265;28;20205;-77
2023/03/13 00:10:26;;;;;;;14.93;3.57;;;10.00;99.90;;;;;;5048826;28;20426;-77
2023/03/13 00:12:52;;;;;;;12.37;3.43;;;10.00;99.90;;;;;;5057569;22;20233;-74
2023/03/13 00:15:17;;;;;;;14.93;3.63;;;10.00;99.90;;;;;;5048669;28;20745;-73
2023/03/13 00:17:43;;;;;;;10.27;3.23;;;10.00;99.90;;;;;;5047422;28;20427;-73
2023/03/13 00:20:09;;;;;;;13.80;3.40;;;10.00;99.90;;;;;;5048681;28;20212;-73
2023/03/13 00:22:35;;;;;;;11.93;3.30;;;10.00;99.90;;;;;;5049014;28;20216;-73
2023/03/13 00:25:01;;;;;;;11.30;3.37;;;10.00;99.90;;;;;;5048535;28;20899;-74
2023/03/13 00:27:26;;;;;;;11.47;3.00;;;10.00;99.90;;;;;;5048698;28;20178;-74
2023/03/13 00:29:52;;;;;;;12.37;2.97;;;10.00;99.90;;;;;;5046482;28;20196;-74
2023/03/13 00:32:18;;;;;;;11.13;4.03;;;10.00;99.90;;;;;;5048942;28;20189;-74
2023/03/13 00:34:43;;;;;;;11.20;3.40;;;10.00;99.90;;;;;;5048401;28;20217;-73
2023/03/13 00:37:09;;;;;;;11.57;3.67;;;10.00;99.90;;;;;;5047295;28;20228;-74
2023/03/13 00:39:34;;;;;;;13.73;4.07;;;10.00;99.90;;;;;;5048789;28;20602;-74
2023/03/13 00:42:02;;;;;;;9.80;3.33;;;10.00;99.90;;;;;;5048580;28;20752;-74
2023/03/13 00:44:28;;;;;;;10.07;3.10;;;10.10;99.90;;;;;;5048584;28;20281;-74
2023/03/13 00:46:54;;;;;;;11.63;3.73;;;10.10;99.90;;;;;;5048505;28;20417;-74
2023/03/13 00:49:20;;;;;;;14.63;3.40;;;10.10;99.90;;;;;;5048610;28;20739;-74
2023/03/13 00:51:45;;;;;;;11.00;3.87;;;10.10;99.90;;;;;;5048477;28;20170;-74
2023/03/13 00:54:11;;;;;;;11.47;3.20;;;10.10;99.90;;;;;;5048484;28;20650;-73
2023/03/13 00:56:37;;;;;;;8.53;3.40;;;10.10;99.90;;;;;;5048629;28;20714;-73
2023/03/13 00:59:02;;;;;;;12.50;3.20;;;10.10;99.90;;;;;;5048313;28;20223;-74
2023/03/13 01:01:33;;;;;;;10.10;3.43;;;10.10;99.90;;;;;;5048515;28;20245;-74
2023/03/13 01:04:10;;;;;;;10.50;3.30;;;10.10;99.90;;;;;;5046660;28;20234;-73
2023/03/13 01:06:41;;;;;;;15.57;3.27;;;10.10;99.90;;;;;;5047082;28;20423;-74
2023/03/13 01:09:10;;;;;;;12.93;3.10;;;10.10;99.90;;;;;;5048173;28;21002;-74
2023/03/13 01:11:38;;;;;;;7.93;3.17;;;10.10;99.90;;;;;;5041320;28;20417;-74
2023/03/13 01:14:06;;;;;;;10.83;3.33;;;10.10;99.90;;;;;;5027954;28;20436;-74
2023/03/13 01:16:34;;;;;;;11.80;3.37;;;10.10;99.90;;;;;;5010758;28;20440;-74
2023/03/13 01:19:02;;;;;;;12.93;3.50;;;10.10;99.90;;;;;;5028062;28;20459;-74
2023/03/13 01:21:29;;;;;;;12.10;3.23;;;10.10;99.90;;;;;;5028184;28;20447;-74
2023/03/13 01:23:55;;;;;;;9.80;3.20;;;10.10;99.90;;;;;;5026605;28;20433;-74
2023/03/13 01:26:21;;;;;;;12.93;3.60;;;10.10;99.90;;;;;;5027128;28;20428;-74
2023/03/13 01:28:47;;;;;;;11.90;3.20;;;10.10;99.90;;;;;;5026824;28;20417;-74
2023/03/13 01:31:21;;;;;;;11.63;3.20;;;10.10;99.90;;;;;;5027509;28;20567;-74
2023/03/13 01:33:51;;;;;;;10.20;3.13;;;10.10;99.90;;;;;;5026531;28;20467;-74
2023/03/13 01:36:17;;;;;;;10.27;3.23;;;10.10;99.90;;;;;;5028024;28;20457;-74
2023/03/13 01:38:46;;;;;;;9.20;2.90;;;10.10;99.90;;;;;;5030307;28;20440;-74
2023/03/13 01:41:12;;;;;;;7.87;3.10;;;10.10;99.90;;;;;;5030470;28;20417;-74
2023/03/13 01:43:38;;;;;;;10.83;2.80;;;10.10;99.90;;;;;;5031636;28;20435;-74
2023/03/13 01:46:07;;;;;;;8.70;3.03;;;10.00;99.90;;;;;;5031915;28;20957;-74
2023/03/13 01:48:54;;;;;;;10.27;3.47;;;10.00;99.90;;;;;;5030491;28;20210;-74
2023/03/13 01:51:25;;;;;;;10.43;3.50;;;10.00;99.90;;;;;;5031627;28;20417;-74
2023/03/13 01:54:15;;;;;;;10.27;3.43;;;9.90;99.90;;;;;;5031549;28;20421;-74
2023/03/13 01:56:40;;;;;;;11.53;3.40;;;9.90;99.90;;;;;;5031415;28;20425;-74
2023/03/13 01:59:09;;;;;;;13.70;3.53;;;10.00;99.90;;;;;;5031532;28;20405;-74
2023/03/13 02:01:35;;;;;;;16.87;3.30;;;9.90;99.90;;;;;;5031380;28;20219;-74
2023/03/13 02:04:02;;;;;;;9.13;3.20;;;9.90;99.90;;;;;;5031361;28;20415;-74
2023/03/13 02:06:30;;;;;;;11.70;4.30;;;9.90;99.90;;;;;;5030365;28;20463;-74
2023/03/13 02:09:06;;;;;;;11.90;3.13;;;9.90;99.90;;;;;;5031419;28;20416;-74
2023/03/13 02:11:53;;;;;;;11.47;3.27;;;9.80;99.90;;;;;;5037401;28;20416;-74
2023/03/13 02:14:22;;;;;;;16.50;3.63;;;9.80;99.90;;;;;;5049625;28;20886;-74
2023/03/13 02:16:50;;;;;;;7.57;3.40;;;9.80;99.90;;;;;;5051104;28;20416;-74
2023/03/13 02:19:30;;;;;;;8.70;4.67;;;9.80;99.90;;;;;;5051087;28;20730;-74
2023/03/13 02:22:24;;;;;;;10.33;3.20;;;9.90;99.90;;;;;;5051205;28;20432;-74
2023/03/13 02:25:12;;;;;;;10.13;3.00;;;9.90;99.90;;;;;;5049036;28;20455;-74
2023/03/13 02:27:39;;;;;;;11.53;3.77;;;9.80;99.90;;;;;;5050892;28;20412;-74
2023/03/13 02:30:06;;;;;;;10.90;3.40;;;9.80;99.90;;;;;;5049034;28;20873;-74
2023/03/13 02:32:32;;;;;;;14.43;4.17;;;9.80;99.90;;;;;;5049706;28;20440;-74
2023/03/13 02:35:03;;;;;;;9.73;3.47;;;9.80;99.90;;;;;;5050467;28;20794;-74
2023/03/13 02:37:30;;;;;;;13.00;3.30;;;9.80;99.90;;;;;;5049465;28;20427;-74
2023/03/13 02:39:59;;;;;;;9.30;3.37;;;9.70;99.90;;;;;;5050686;28;20888;-74
2023/03/13 02:42:25;;;;;;;6.60;3.67;;;9.70;99.90;;;;;;5050834;28;20444;-74
2023/03/13 02:44:51;;;;;;;11.80;3.90;;;9.80;99.90;;;;;;5050529;28;20412;-74
2023/03/13 02:47:22;;;;;;;9.20;3.03;;;9.70;99.90;;;;;;5050963;28;20766;-74
2023/03/13 02:49:49;;;;;;;10.03;3.30;;;9.80;99.90;;;;;;5049047;28;20186;-74
2023/03/13 02:52:32;;;;;;;10.33;3.70;;;9.70;99.90;;;;;;5050636;28;20444;-74
2023/03/13 02:55:01;;;;;;;9.90;2.90;;;9.70;99.90;;;;;;5050278;28;20456;-74
2023/03/13 02:57:28;;;;;;;8.97;3.60;;;9.70;99.90;;;;;;5050207;28;20409;-74
2023/03/13 02:59:54;;;;;;;9.90;3.83;;;9.70;99.90;;;;;;5050022;28;20469;-74
2023/03/13 03:02:20;;;;;;;10.50;3.50;;;9.80;99.90;;;;;;5050279;28;20428;-74
2023/03/13 03:04:46;;;;;;;5.70;2.80;;;9.70;99.90;;;;;;5050058;28;20822;-74
2023/03/13 03:07:12;;;;;;;13.00;3.20;;;9.80;99.90;;;;;;5050097;28;20506;-74
2023/03/13 03:09:37;;;;;;;8.13;3.90;;;9.80;99.90;;;;;;5050033;28;20470;-74
2023/03/13 03:12:03;;;;;;;8.73;3.50;;;9.70;99.90;;;;;;5049822;28;20213;-74
2023/03/13 03:14:29;;;;;;;6.53;2.90;;;9.70;99.90;;;;;;5050026;28;20879;-74
2023/03/13 03:16:55;;;;;;;16.93;5.10;;;9.80;99.90;;;;;;5048592;28;20415;-74
2023/03/13 03:19:21;;;;;;;7.07;2.80;;;9.80;99.90;;;;;;5049942;28;20459;-74
2023/03/13 03:21:48;;;;;;;6.87;3.20;;;9.80;99.90;;;;;;5050105;28;20182;-74
2023/03/13 03:24:14;;;;;;;7.90;3.17;;;9.80;99.90;;;;;;5049748;28;20162;-74
2023/03/13 03:26:40;;;;;;;5.83;2.20;;;9.90;99.90;;;;;;5048487;28;20400;-74
2023/03/13 03:29:07;;;;;;;8.50;2.60;;;9.90;99.90;;;;;;5049624;28;20974;-74
2023/03/13 03:31:33;;;;;;;7.70;2.80;;;9.90;99.90;;;;;;5048801;28;20704;-74
2023/03/13 03:33:59;;;;;;;4.57;2.43;;;9.90;99.90;;;;;;5049704;28;20397;-74
2023/03/13 03:36:25;;;;;;;9.70;2.57;;;9.90;99.90;;;;;;5048412;28;20847;-74
2023/03/13 03:38:51;;;;;;;5.67;2.27;;;10.00;99.90;;;;;;5049358;28;20416;-74
2023/03/13 03:41:20;;;;;;;5.53;2.80;;;10.00;99.90;;;;;;5049232;28;20792;-74
2023/03/13 03:43:46;;;;;;;4.93;2.77;;;10.00;99.90;;;;;;5049153;28;20428;-74
2023/03/13 03:46:13;;;;;;;6.30;2.40;;;10.00;99.90;;;;;;5049439;28;20423;-74
2023/03/13 03:48:39;;;;;;;6.90;2.77;;;10.00;99.90;;;;;;5047944;28;20408;-74
2023/03/13 03:51:05;;;;;;;6.87;2.23;;;9.90;99.90;;;;;;5047923;28;20799;-74
2023/03/13 03:53:31;;;;;;;8.67;2.90;;;10.00;99.90;;;;;;5048980;28;20233;-74
2023/03/13 03:55:57;;;;;;;3.70;2.50;;;10.00;99.90;;;;;;5049352;28;20904;-74
2023/03/13 03:58:23;;;;;;;6.03;2.30;;;10.00;99.90;;;;;;5047663;28;20404;-74
2023/03/13 04:00:49;;;;;;;3.70;2.30;;;10.00;99.90;;;;;;5048455;28;20415;-74
2023/03/13 04:03:15;;;;;;;5.00;2.17;;;10.00;99.90;;;;;;5048784;28;20808;-74
2023/03/13 04:05:42;;;;;;;4.70;2.20;;;10.10;99.90;;;;;;5049394;28;20462;-74
2023/03/13 04:08:08;;;;;;;2.03;1.70;;;10.10;99.90;;;;;;5047783;28;20433;-73
2023/03/13 04:10:34;;;;;;;4.37;2.07;;;10.10;99.90;;;;;;5048836;28;20786;-74
2023/03/13 04:13:00;;;;;;;4.80;2.30;;;10.10;99.90;;;;;;5048785;28;20456;-74
2023/03/13 04:15:26;;;;;;;4.93;1.80;;;10.10;99.90;;;;;;5048989;28;20288;-74
2023/03/13 04:17:51;;;;;;;4.33;1.90;;;10.10;99.90;;;;;;5048672;28;20181;-74
2023/03/13 04:20:17;;;;;;;3.83;1.70;;;10.20;99.90;;;;;;5047331;28;20170;-74
2023/03/13 04:22:43;;;;;;;3.47;1.80;;;10.20;99.90;;;;;;5047191;28;20190;-74
2023/03/13 04:25:09;;;;;;;4.20;2.50;;;10.20;99.90;;;;;;5048574;28;20189;-74
2023/03/13 04:27:35;;;;;;;3.30;2.00;;;10.30;99.90;;;;;;5047122;28;20178;-74
2023/03/13 04:30:01;;;;;;;3.93;1.93;;;10.20;99.90;;;;;;5047350;28;20459;-74
2023/03/13 04:32:27;;;;;;;4.70;1.93;;;10.30;99.90;;;;;;5048577;28;20518;-74
2023/03/13 04:34:52;;;;;;;4.63;2.10;;;10.30;99.90;;;;;;5048278;28;20452;-74
2023/03/13 04:37:18;;;;;;;3.53;2.03;;;10.30;99.90;;;;;;5048339;28;20416;-74
2023/03/13 04:39:44;;;;;;;5.30;2.03;;;10.20;99.90;;;;;;5047690;28;20264;-74
2023/03/13 04:42:10;;;;;;;3.83;1.63;;;10.30;99.90;;;;;;5047103;28;20266;-74
2023/03/13 04:44:36;;;;;;;4.07;2.20;;;10.30;99.90;;;;;;5048230;28;20178;-74
2023/03/13 04:47:02;;;;;;;4.00;2.67;;;10.30;99.90;;;;;;5048179;28;20412;-74
2023/03/13 04:49:28;;;;;;;4.60;2.00;;;10.20;99.90;;;;;;5048345;28;20205;-74
2023/03/13 04:51:54;;;;;;;4.50;2.10;;;10.30;99.90;;;;;;5048293;28;20833;-74
2023/03/13 04:54:20;;;;;;;2.83;2.10;;;10.30;99.90;;;;;;5048248;28;20654;-74
2023/03/13 04:56:45;;;;;;;4.13;2.10;;;10.30;99.90;;;;;;5048241;28;20596;-74
2023/03/13 04:59:12;;;;;;;3.90;2.57;;;10.30;99.90;;;;;;5047073;28;20182;-74
2023/03/13 05:01:38;;;;;;;2.30;2.10;;;10.30;99.90;;;;;;5047051;28;20565;-74
2023/03/13 05:04:05;;;;;;;2.27;1.90;;;10.30;99.90;;;;;;5046926;28;20416;-74
2023/03/13 05:06:30;;;;;;;4.40;2.50;;;10.30;99.90;;;;;;5048379;28;20421;-74
2023/03/13 05:08:56;;;;;;;3.20;2.13;;;10.30;99.90;;;;;;5048267;28;20434;-74
2023/03/13 05:11:22;;;;;;;2.60;1.90;;;10.30;99.90;;;;;;5048039;28;20182;-74
2023/03/13 05:13:48;;;;;;;2.93;2.00;;;10.40;99.90;;;;;;5049314;28;20490;-74
2023/03/13 05:16:14;;;;;;;3.30;2.10;;;10.40;99.90;;;;;;5051068;28;20483;-74
2023/03/13 05:18:39;;;;;;;2.97;1.90;;;10.40;99.90;;;;;;5050508;28;20181;-74
2023/03/13 05:21:06;;;;;;;4.43;1.90;;;10.50;99.90;;;;;;5050828;28;20199;-74
2023/03/13 05:23:32;;;;;;;3.83;2.07;;;10.40;99.90;;;;;;5050516;28;20205;-74
2023/03/13 05:25:59;;;;;;;3.43;2.07;;;10.50;99.90;;;;;;5049589;28;20503;-74
2023/03/13 05:28:24;;;;;;;2.73;1.93;;;10.40;99.90;;;;;;5050446;28;20412;-74
2023/03/13 05:30:51;;;;;;;4.87;2.23;;;10.50;99.90;;;;;;5049781;28;20752;-74
2023/03/13 05:33:18;;;;;;;6.93;2.50;;;10.50;99.90;;;;;;5050361;28;20436;-74
2023/03/13 05:35:44;;;;;;;2.43;2.03;;;10.50;99.90;;;;;;5050775;28;20194;-74
2023/03/13 05:38:10;;;;;;;3.30;1.80;;;10.50;99.90;;;;;;5050273;28;20428;-74
2023/03/13 05:40:36;;;;;;;3.53;2.57;;;10.50;99.90;;;;;;5046886;28;20408;-74
2023/03/13 05:43:02;;;;;;;3.20;2.27;;;10.50;99.90;;;;;;5027368;28;20799;-74
2023/03/13 05:45:28;;;;;;;2.73;2.50;;;10.60;99.90;;;;;;5027919;28;20188;-72
2023/03/13 05:47:54;;;;;;;3.63;2.47;;;10.60;99.90;;;;;;5028887;28;20417;-73
2023/03/13 05:50:19;;;;;;;2.77;2.20;;;10.60;99.90;;;;;;5030169;28;20182;-73
2023/03/13 05:52:45;;;;;;;4.00;2.50;;;10.70;99.90;;;;;;5030140;28;20198;-72
2023/03/13 05:55:11;;;;;;;2.80;2.20;;;10.60;99.90;;;;;;5012688;28;20702;-74
2023/03/13 05:57:36;;;;;;;3.17;2.40;;;10.60;99.90;;;;;;5030582;28;20180;-74
2023/03/13 06:00:03;;;;;;;3.30;2.60;;;10.60;99.90;;;;;;5028773;28;20252;-74
2023/03/13 06:02:29;;;;;;;3.57;2.77;;;10.70;99.90;;;;;;5030400;28;20604;-74
2023/03/13 06:04:54;;;;;;;3.33;2.60;;;10.70;99.90;;;;;;5030325;28;20417;-74
2023/03/13 06:07:20;;;;;;;3.13;2.83;;;10.70;99.90;;;;;;5029121;28;20213;-74
2023/03/13 06:09:46;;;;;;;3.40;2.90;;;10.80;99.90;;;;;;5030293;28;20181;-73
2023/03/13 06:12:11;;;;;;;5.30;2.63;;;10.70;99.90;;;;;;5019423;22;1104005;-76
2023/03/13 06:14:37;;;;;;;4.17;2.70;;;10.70;99.90;;;;;;5050460;28;20237;-77
2023/03/13 06:17:04;;;;;;;5.87;3.10;;;10.80;99.90;;;;;;5051458;28;20180;-77
2023/03/13 06:19:30;;;;;;;4.70;2.50;;;10.80;99.90;;;;;;5051273;28;20182;-77
2023/03/13 06:21:56;;;;;;;3.60;2.83;;;10.80;99.90;;;;;;5051484;28;20397;-76
2023/03/13 06:24:21;;;;;;;5.70;2.90;;;10.90;99.90;;;;;;5050492;28;20441;-77
2023/03/13 06:26:48;;;;;;;3.33;2.77;;;10.90;99.90;;;;;;5050073;28;20243;-77
2023/03/13 06:29:15;;;;;;;4.23;2.90;;;11.00;99.90;;;;;;5051367;28;20185;-77
2023/03/13 06:31:40;;;;;;;2.93;2.50;;;11.00;99.90;;;;;;5050647;28;20419;-77
2023/03/13 06:34:10;;;;;;;3.20;2.20;;;11.00;99.90;;;;;;5049862;28;20807;-77
2023/03/13 06:36:35;;;;;;;3.30;2.33;;;11.10;99.90;;;;;;5051330;28;20681;-77
2023/03/13 06:39:01;;;;;;;2.50;2.10;;;11.10;99.90;;;;;;5051055;28;20415;-76
2023/03/13 06:41:27;;;;;;;5.43;2.53;;;11.20;99.90;;;;;;5051021;28;20174;-76
2023/03/13 06:43:53;;;;;;;5.60;2.90;;;11.20;99.90;;;;;;5050670;28;20439;-77
2023/03/13 06:46:21;;;;;;;4.70;2.30;;;11.30;99.90;;;;;;5050953;28;20181;-77
2023/03/13 06:48:48;;;;;;;2.80;2.23;;;11.30;99.90;;;;;;5050740;28;20189;-77
2023/03/13 06:51:16;;;;;;;2.33;2.13;;;11.30;99.90;;;;;;5049230;28;20416;-77
2023/03/13 06:53:43;;;;;;;2.20;1.80;;;11.30;99.90;;;;;;5046791;28;20455;-77
2023/03/13 06:56:09;;;;;;;4.23;2.33;;;11.40;99.90;;;;;;5048814;28;20463;-77
2023/03/13 06:58:35;;;;;;;3.50;2.40;;;11.50;99.90;;;;;;5050343;28;20485;-77
2023/03/13 07:01:09;;;;;;;2.43;2.20;;;11.40;99.90;;;;;;5045835;28;20420;-76
2023/03/13 07:03:36;;;;;;;2.43;2.20;;;11.50;99.90;;;;;;5049430;28;20445;-77
2023/03/13 07:06:02;;;;;;;3.17;2.40;;;11.50;99.90;;;;;;5050279;28;20451;-77
2023/03/13 07:08:28;;;;;;;2.27;1.97;;;11.50;99.90;;;;;;5039968;28;20506;-74
2023/03/13 07:10:59;;;;;;;3.73;2.10;;;11.50;99.90;;;;;;5036310;28;20859;-77
2023/03/13 07:13:25;;;;;;;3.03;2.30;;;11.60;99.90;;;;;;5045555;28;20828;-76
2023/03/13 07:15:51;;;;;;;2.93;2.53;;;11.60;99.90;;;;;;5050228;28;20857;-77
2023/03/13 07:18:17;;;;;;;2.93;2.23;;;11.60;99.90;;;;;;5049981;28;20408;-76
2023/03/13 07:20:42;;;;;;;3.40;3.07;;;11.70;99.90;;;;;;5048594;28;20177;-76
2023/03/13 07:23:08;;;;;;;4.50;2.60;;;11.70;99.90;;;;;;5049726;28;20440;-77
2023/03/13 07:25:34;;;;;;;5.13;2.30;;;11.70;99.90;;;;;;5048861;28;20270;-77
2023/03/13 07:28:00;;;;;;;3.00;1.70;;;11.70;99.90;;;;;;5049859;28;20250;-77
2023/03/13 07:30:26;;;;;;;2.60;2.37;;;11.70;99.90;;;;;;5031354;28;20178;-77
2023/03/13 07:32:52;;;;;;;4.10;2.57;;;11.70;99.90;;;;;;5049695;28;20694;-77
2023/03/13 07:35:18;;;;;;;2.43;2.13;;;11.70;99.90;;;;;;5048905;28;20503;-76
2023/03/13 07:37:43;;;;;;;3.50;2.30;;;11.80;99.90;;;;;;5064806;28;20551;-76
2023/03/13 07:40:11;;;;;;;3.20;2.43;;;11.80;99.90;;;;;;5069423;28;20629;-76
2023/03/13 07:42:41;;;;;;;4.63;2.97;;;11.90;99.90;;;;;;5069439;28;20199;-76
2023/03/13 07:45:08;;;;;;;2.27;1.90;;;11.90;99.90;;;;;;5068320;28;20422;-77
2023/03/13 07:47:34;;;;;;;3.90;2.40;;;11.90;99.90;;;;;;5066902;28;20510;-76
2023/03/13 07:49:59;;;;;;;3.50;2.20;;;12.00;99.90;;;;;;5039251;28;20452;-77
2023/03/13 07:52:26;;;;;;;3.07;2.27;;;12.00;99.90;;;;;;5037904;28;20943;-77
2023/03/13 07:54:53;;;;;;;3.20;2.40;;;12.00;99.90;;;;;;5036976;28;20202;-76
2023/03/13 07:57:19;;;;;;;6.90;2.37;;;12.00;99.90;;;;;;5029296;28;20814;-77
2023/03/13 07:59:44;;;;;;;2.57;2.20;;;12.00;99.90;;;;;;5029250;28;20405;-76
2023/03/13 08:02:12;;;;;;;3.50;2.90;;;12.00;99.90;;;;;;5029329;28;20401;-77
2023/03/13 08:04:38;;;;;;;3.70;2.40;;;12.10;99.90;;;;;;5029176;28;20179;-77
2023/03/13 08:07:08;;;;;;;4.23;2.63;;;12.10;99.90;;;;;;5027982;28;20784;-77
2023/03/13 08:09:33;;;;;;;4.63;2.53;;;12.10;99.90;;;;;;5011436;28;20418;-77
2023/03/13 08:11:59;;;;;;;4.73;3.60;;;12.10;99.90;;;;;;5039318;28;20416;-77
2023/03/13 08:14:25;;;;;;;5.70;3.03;;;12.10;99.90;;;;;;5037745;28;20194;-77
2023/03/13 08:16:51;;;;;;;4.17;3.20;;;12.10;99.90;;;;;;5044411;28;20210;-77
2023/03/13 08:19:16;;;;;;;6.83;2.67;;;12.10;99.90;;;;;;5029017;28;20185;-77
2023/03/13 08:21:42;;;;;;;4.10;2.80;;;12.20;99.90;;;;;;5028965;28;20174;-77
2023/03/13 08:24:09;;;;;;;6.20;2.80;;;12.20;99.90;;;;;;5028660;28;20194;-76
2023/03/13 08:26:37;;;;;;;3.93;2.70;;;12.20;99.90;;;;;;5028152;28;20179;-76
2023/03/13 08:29:06;;;;;;;5.20;2.80;;;12.20;99.90;;;;;;5029220;28;20471;-76
2023/03/13 08:31:37;;;;;;;2.80;2.10;;;12.30;99.90;;;;;;5045064;28;20443;-77
2023/03/13 08:34:03;;;;;;;4.93;3.20;;;12.30;99.90;;;;;;5047790;28;20527;-76
2023/03/13 08:36:32;;;;;;;6.13;2.73;;;12.30;99.90;;;;;;5052800;28;20547;-77
2023/03/13 08:39:00;;;;;;;4.37;3.43;;;12.30;99.90;;;;;;5068919;28;20181;-76
2023/03/13 08:41:28;;;;;;;5.03;2.70;;;12.30;99.90;;;;;;5067773;28;20407;-77
2023/03/13 08:43:55;;;;;;;6.10;2.77;;;12.30;99.90;;;;;;5068813;28;20427;-76
2023/03/13 08:46:21;;;;;;;6.10;2.97;;;12.30;99.90;;;;;;5069251;28;20412;-77
2023/03/13 08:48:51;;;;;;;4.50;2.80;;;12.30;99.90;;;;;;5068936;28;20494;-76
2023/03/13 08:51:18;;;;;;;8.07;4.03;;;12.40;99.90;;;;;;5068965;28;20207;-76
2023/03/13 08:53:44;;;;;;;6.20;3.00;;;12.40;99.90;;;;;;5068748;28;20860;-76
2023/03/13 08:56:13;;;;;;;3.77;2.43;;;12.40;99.90;;;;;;5067805;28;20962;-76
2023/03/13 08:58:38;;;;;;;4.83;2.73;;;12.50;99.90;;;;;;5068806;28;20430;-77
2023/03/13 09:01:09;;;;;;;4.90;2.67;;;12.40;99.90;;;;;;5068884;28;20748;-77
2023/03/13 09:03:35;;;;;;;8.20;3.20;;;12.40;99.90;;;;;;5067452;28;20682;-76
2023/03/13 09:06:01;;;;;;;3.33;3.03;;;12.50;99.90;;;;;;5069155;28;20413;-77
2023/03/13 09:08:28;;;;;;;5.37;2.63;;;12.50;99.90;;;;;;5065768;28;20472;-77
2023/03/13 09:11:04;;;;;;;3.20;2.53;;;12.40;99.90;;;;;;5048179;28;20416;-77
2023/03/13 09:13:30;;;;;;;7.87;3.03;;;12.50;99.90;;;;;;5047209;28;20451;-77
2023/03/13 09:16:02;;;;;;;6.73;2.90;;;12.40;99.90;;;;;;5045958;28;20530;-77
2023/03/13 09:18:28;;;;;;;3.30;2.53;;;12.40;99.90;;;;;;5048253;28;20409;-76
2023/03/13 09:20:54;;;;;;;5.87;3.03;;;12.50;99.90;;;;;;5042851;28;20424;-77
2023/03/13 09:23:21;;;;;;;5.03;2.90;;;12.50;99.90;;;;;;5043381;28;20452;-77
2023/03/13 09:25:50;;;;;;;7.70;3.20;;;12.60;99.90;;;;;;5045407;28;20439;-77
2023/03/13 09:28:16;;;;;;;7.50;3.40;;;12.70;99.90;;;;;;5030025;28;20814;-76
2023/03/13 09:30:42;;;;;;;4.40;3.20;;;12.80;99.90;;;;;;5047130;28;20408;-77
2023/03/13 09:33:07;;;;;;;6.10;3.30;;;12.80;99.90;;;;;;5046630;28;20686;-76
2023/03/13 09:35:33;;;;;;;3.83;2.70;;;12.80;99.90;;;;;;5046178;28;20271;-77
2023/03/13 09:37:59;;;;;;;3.87;3.03;;;12.90;99.90;;;;;;5045060;28;20178;-77
2023/03/13 09:40:26;;;;;;;4.80;2.83;;;12.90;99.90;;;;;;5040718;28;20171;-77
2023/03/13 09:42:57;;;;;;;7.03;2.97;;;12.90;99.90;;;;;;5034408;28;20563;-76
2023/03/13 09:45:41;;;;;;;10.03;3.10;;;12.90;99.90;;;;;;5047015;28;20933;-76
2023/03/13 09:48:30;;;;;;;5.30;2.67;;;13.00;99.90;;;;;;5047202;28;20485;-76
2023/03/13 09:51:14;;;;;;;6.90;3.43;;;13.00;99.90;;;;;;5039185;28;20420;-77
2023/03/13 09:53:52;;;;;;;6.50;3.90;;;12.90;99.90;;;;;;5045595;28;20467;-76
2023/03/13 09:56:30;;;;;;;4.47;2.80;;;12.90;99.90;;;;;;5047843;28;21173;-76
2023/03/13 09:59:10;;;;;;;3.27;2.97;;;12.90;99.90;;;;;;5047722;28;20435;-77
2023/03/13 10:01:39;;;;;;;4.40;3.10;;;12.90;99.90;;;;;;5051498;28;20851;-77
2023/03/13 10:04:38;;;;;;;8.13;3.50;;;12.90;99.90;;;;;;5050566;28;20460;-77
2023/03/13 10:07:08;;;;;;;6.70;3.27;;;12.90;99.90;;;;;;5051498;28;20431;-76
2023/03/13 10:09:36;;;;;;;6.23;3.50;;;13.00;99.90;;;;;;5051267;28;20465;-76
2023/03/13 10:12:19;;;;;;;3.23;2.90;;;13.00;99.90;;;;;;5051317;28;20416;-77
2023/03/13 10:14:47;;;;;;;4.77;3.00;;;13.00;99.90;;;;;;5049798;28;20918;-77
2023/03/13 10:17:33;;;;;;;4.83;3.50;;;13.00;99.90;;;;;;5050019;28;20865;-76
2023/03/13 10:20:17;;;;;;;6.33;3.63;;;13.00;99.90;;;;;;5049930;28;20470;-77
2023/03/13 10:22:47;;;;;;;6.77;3.23;;;13.10;99.90;;;;;;5049927;28;20432;-76
2023/03/13 10:25:39;;;;;;;5.13;3.60;;;13.20;99.90;;;;;;5049842;28;20412;-77
2023/03/13 10:28:13;;;;;;;8.20;2.80;;;13.30;99.90;;;;;;5049895;28;20503;-77
2023/03/13 10:30:45;;;;;;;4.53;2.90;;;13.50;99.90;;;;;;5050546;28;20412;-77
2023/03/13 10:33:11;;;;;;;4.07;2.73;;;13.60;99.90;;;;;;5050770;28;20425;-77
2023/03/13 10:35:42;;;;;;;2.80;2.43;;;13.70;99.90;;;;;;5050910;28;20466;-76
2023/03/13 10:38:10;;;;;;;4.70;2.40;;;13.70;99.90;;;;;;5050845;28;20541;-77
2023/03/13 10:40:36;;;;;;;3.13;2.83;;;13.80;99.90;;;;;;5050631;28;20990;-77
2023/03/13 10:43:23;;;;;;;4.90;2.63;;;13.80;99.90;;;;;;5050498;28;20428;-76
2023/03/13 10:45:49;;;;;;;5.30;2.40;;;13.80;99.90;;;;;;5050996;28;20525;-76
2023/03/13 10:48:18;;;;;;;3.57;2.33;;;13.80;99.90;;;;;;5050692;28;20928;-77
2023/03/13 10:50:47;;;;;;;5.60;2.77;;;13.90;99.90;;;;;;5050563;28;20728;-77
2023/03/13 10:53:28;;;;;;;3.70;2.80;;;13.90;99.90;;;;;;5050473;28;20444;-77
2023/03/13 10:56:14;;;;;;;2.90;2.37;;;14.00;99.90;;;;;;5050528;28;20808;-77
2023/03/13 10:58:49;;;;;;;6.43;2.60;;;14.00;99.90;;;;;;5049294;28;20412;-76
2023/03/13 11:01:20;;;;;;;4.77;2.07;;;14.00;99.90;;;;;;5050346;28;20901;-77
2023/03/13 11:03:47;;;;;;;3.23;2.27;;;14.00;99.90;;;;;;5049610;28;20433;-77
2023/03/13 11:06:34;;;;;;;2.70;2.10;;;14.10;99.90;;;;;;5050482;28;20405;-77
2023/03/13 11:09:10;;;;;;;3.57;2.13;;;14.10;99.90;;;;;;5049104;28;20416;-76
2023/03/13 11:12:12;;;;;;;3.90;2.23;;;14.10;99.90;;;;;;5049110;28;20511;-76
2023/03/13 11:14:38;;;;;;;2.50;1.90;;;14.20;99.90;;;;;;5038378;28;20858;-77
2023/03/13 11:17:15;;;;;;;3.30;1.80;;;14.20;99.90;;;;;;5048865;28;20452;-76
2023/03/13 11:20:19;;;;;;;3.67;2.07;;;14.20;99.90;;;;;;5048735;28;20812;-77
2023/03/13 11:22:52;;;;;;;2.47;1.80;;;14.20;99.90;;;;;;5050132;28;20428;-76
2023/03/13 11:25:46;;;;;;;3.20;1.90;;;14.30;99.90;;;;;;5049979;28;20408;-77
2023/03/13 11:28:11;;;;;;;1.90;1.70;;;14.40;99.90;;;;;;5050004;28;20507;-77
2023/03/13 11:30:37;;;;;;;2.03;1.63;;;14.40;99.90;;;;;;5049957;28;20869;-77
2023/03/13 11:33:09;;;;;;;2.90;1.50;;;14.50;99.90;;;;;;5031844;28;20205;-76
2023/03/13 11:36:03;;;;;;;1.80;1.40;;;14.40;99.90;;;;;;5048710;28;20256;-76
2023/03/13 11:38:39;;;;;;;5.33;2.07;;;14.50;99.90;;;;;;5029885;28;20417;-76
2023/03/13 11:41:05;;;;;;;2.03;1.50;;;14.50;99.90;;;;;;5029827;28;20862;-77
2023/03/13 11:43:58;;;;;;;6.07;1.63;;;14.50;99.90;;;;;;5030338;28;20543;-76
2023/03/13 11:46:36;;;;;;;3.00;1.50;;;14.60;99.90;;;;;;5030442;28;20187;-77
2023/03/13 11:49:14;;;;;;;1.67;1.33;;;14.60;99.90;;;;;;5028863;28;20434;-77
2023/03/13 11:52:00;;;;;;;1.50;1.40;;;14.60;99.90;;;;;;5029656;28;20416;-77
2023/03/13 11:54:45;;;;;;;3.07;1.60;;;14.60;99.90;;;;;;5029089;28;20751;-77
2023/03/13 11:57:13;;;;;;;1.30;1.20;;;14.70;99.90;;;;;;5029486;28;20406;-77
2023/03/13 11:59:48;;;;;;;2.40;1.37;;;14.70;99.90;;;;;;5028134;28;20933;-76
2023/03/13 12:02:19;;;;;;;2.30;1.60;;;14.80;99.90;;;;;;5029547;28;20441;-77
2023/03/13 12:05:12;;;;;;;2.87;1.30;;;14.90;99.90;;;;;;5027426;28;20436;-77
2023/03/13 12:07:46;;;;;;;1.90;1.37;;;15.00;99.90;;;;;;5029410;28;20669;-77
2023/03/13 12:10:18;;;;;;;3.33;1.50;;;15.10;99.90;;;;;;5029149;28;20483;-76
2023/03/13 12:12:50;;;;;;;2.87;1.10;;;15.20;99.90;;;;;;5045599;28;20474;-77
2023/03/13 12:15:42;;;;;;;1.33;1.20;;;15.40;99.90;;;;;;5048920;28;20467;-76
2023/03/13 12:18:21;;;;;;;1.37;1.17;;;15.50;99.90;;;;;;5049036;28;20440;-77
2023/03/13 12:21:17;;;;;;;1.50;1.10;;;15.50;99.90;;;;;;5048823;28;20416;-76
2023/03/13 12:23:52;;;;;;;4.37;1.37;;;15.60;99.90;;;;;;5048651;28;20982;-77
2023/03/13 12:26:20;;;;;;;1.33;1.00;;;15.60;99.90;;;;;;5049066;28;20408;-76
2023/03/13 12:28:51;;;;;;;1.60;1.10;;;15.60;99.90;;;;;;5048772;28;20828;-77
2023/03/13 12:31:28;;;;;;;2.97;1.30;;;15.60;99.90;;;;;;5048176;28;20413;-76
2023/03/13 12:34:21;;;;;;;1.33;1.20;;;15.60;99.90;;;;;;5047166;28;20525;-77
2023/03/13 12:36:53;;;;;;;3.23;1.17;;;15.70;99.90;;;;;;5047334;28;20525;-76
2023/03/13 12:39:25;;;;;;;3.60;1.20;;;15.70;99.90;;;;;;5048747;28;20539;-77
2023/03/13 12:42:06;;;;;;;1.23;0.93;;;15.70;99.90;;;;;;5048827;28;20495;-76
2023/03/13 12:44:33;;;;;;;8.53;1.10;;;15.70;99.90;;;;;;5047326;28;20421;-77
2023/03/13 12:47:13;;;;;;;3.53;1.03;;;15.60;99.90;;;;;;5048661;28;20408;-77
2023/03/13 12:49:41;;;;;;;8.00;1.20;;;15.50;99.90;;;;;;5048283;28;20412;-76
2023/03/13 12:52:47;;;;;;;1.40;1.20;;;15.50;99.90;;;;;;5048741;28;20482;-76
2023/03/13 12:55:41;;;;;;;1.83;1.17;;;15.40;99.90;;;;;;5048596;28;20546;-77
2023/03/13 12:58:18;;;;;;;2.97;1.40;;;15.40;99.90;;;;;;5048697;28;20423;-77